createdAt,value
2018-06-22T00:00:25.444Z,67.57
2018-06-22T00:01:25.390Z,67.37
2018-06-22T00:02:25.450Z,67.78
2018-06-22T00:03:25.446Z,68.08
2018-06-22T00:04:25.406Z,68.08
2018-06-22T00:05:25.392Z,68.08
2018-06-22T00:06:25.385Z,67.60
2018-06-22T00:07:25.410Z,67.30
2018-06-22T00:08:25.361Z,67.50
2018-06-22T00:09:25.355Z,67.60
2018-06-22T00:10:32.345Z,67.50
2018-06-22T00:11:25.324Z,67.60
2018-06-22T00:12:25.304Z,67.30
2018-06-22T00:13:25.330Z,68.01
2018-06-22T00:14:25.315Z,68.32
2018-06-22T00:15:25.279Z,68.22
2018-06-22T00:16:25.278Z,68.01
2018-06-22T00:17:25.298Z,67.91
2018-06-22T00:18:25.253Z,68.52
2018-06-22T00:19:25.239Z,68.84
2018-06-22T00:20:25.233Z,68.84
2018-06-22T00:21:25.221Z,68.73
2018-06-22T00:22:25.228Z,68.63
2018-06-22T00:23:25.194Z,68.66
2018-06-22T00:24:25.192Z,68.66
2018-06-22T00:25:25.179Z,68.12
2018-06-22T00:26:25.165Z,68.52
2018-06-22T00:27:25.170Z,69.38
2018-06-22T00:28:25.180Z,69.27
2018-06-22T00:29:25.127Z,69.17
2018-06-22T00:30:25.116Z,69.24
2018-06-22T00:31:25.110Z,69.58
2018-06-22T00:32:25.114Z,69.27
2018-06-22T00:33:25.047Z,69.45
2018-06-22T00:34:25.028Z,69.45
2018-06-22T00:35:25.212Z,68.84
2018-06-22T00:36:25.056Z,69.45
2018-06-22T00:37:25.050Z,69.34
2018-06-22T00:38:25.145Z,68.93
2018-06-22T00:39:25.014Z,68.32
2018-06-22T00:40:25.020Z,68.52
2018-06-22T00:41:24.997Z,68.01
2018-06-22T00:42:24.993Z,68.32
2018-06-22T00:43:24.996Z,68.22
2018-06-22T00:44:24.965Z,67.88
2018-06-22T00:45:24.951Z,67.37
2018-06-22T00:46:24.945Z,66.93
2018-06-22T00:47:24.944Z,66.86
2018-06-22T00:48:24.939Z,67.27
2018-06-22T00:49:24.918Z,66.83
2018-06-22T00:50:24.907Z,67.03
2018-06-22T00:51:24.887Z,66.75
2018-06-22T00:52:24.873Z,66.83
2018-06-22T00:53:24.894Z,66.66
2018-06-22T00:54:24.906Z,66.93
2018-06-22T00:55:24.846Z,67.16
2018-06-22T00:56:24.833Z,67.13
2018-06-22T00:57:24.817Z,67.24
2018-06-22T00:58:24.834Z,67.57
2018-06-22T00:59:24.795Z,66.72
2018-06-22T01:00:24.808Z,66.52
2018-06-22T01:01:24.785Z,66.62
2018-06-22T01:02:24.762Z,66.83
2018-06-22T01:03:24.797Z,66.21
2018-06-22T01:04:24.739Z,66.31
2018-06-22T01:05:24.735Z,66.18
2018-06-22T01:06:24.719Z,66.21
2018-06-22T01:07:24.715Z,65.98
2018-06-22T01:08:31.724Z,66.21
2018-06-22T01:09:24.681Z,65.60
2018-06-22T01:10:24.628Z,65.77
2018-06-22T01:11:24.658Z,65.77
2018-06-22T01:12:24.649Z,65.37
2018-06-22T01:13:24.666Z,65.77
2018-06-22T01:14:24.634Z,65.77
2018-06-22T01:15:24.626Z,65.77
2018-06-22T01:16:24.601Z,65.77
2018-06-22T01:17:24.597Z,65.70
2018-06-22T01:18:24.616Z,65.77
2018-06-22T01:19:24.528Z,65.57
2018-06-22T01:20:24.566Z,65.88
2018-06-22T01:21:24.548Z,65.37
2018-06-22T01:22:24.595Z,65.57
2018-06-22T01:23:24.553Z,65.88
2018-06-22T01:24:24.567Z,65.37
2018-06-22T01:25:24.524Z,65.77
2018-06-22T01:26:24.498Z,65.37
2018-06-22T01:27:24.494Z,65.77
2018-06-22T01:28:24.513Z,65.06
2018-06-22T01:29:24.464Z,65.06
2018-06-22T01:30:24.460Z,65.37
2018-06-22T01:31:24.435Z,64.72
2018-06-22T01:32:24.430Z,65.06
2018-06-22T01:33:24.479Z,64.65
2018-06-22T01:34:24.493Z,64.83
2018-06-22T01:35:24.406Z,64.52
2018-06-22T01:36:24.385Z,64.52
2018-06-22T01:37:24.367Z,64.72
2018-06-22T01:38:24.340Z,64.62
2018-06-22T01:39:24.359Z,63.60
2018-06-22T01:40:24.345Z,64.42
2018-06-22T01:41:24.286Z,64.22
2018-06-22T01:42:24.271Z,64.22
2018-06-22T01:43:24.353Z,64.31
2018-06-22T01:44:24.297Z,64.11
2018-06-22T01:45:24.284Z,63.49
2018-06-22T01:46:24.271Z,63.60
2018-06-22T01:47:24.226Z,63.40
2018-06-22T01:48:24.304Z,63.90
2018-06-22T01:49:24.251Z,63.29
2018-06-22T01:50:24.237Z,63.81
2018-06-22T01:51:24.217Z,64.11
2018-06-22T01:52:24.218Z,64.31
2018-06-22T01:53:24.233Z,64.22
2018-06-22T01:54:24.145Z,64.01
2018-06-22T01:55:24.206Z,63.81
2018-06-22T01:56:24.168Z,64.11
2018-06-22T01:57:24.109Z,64.01
2018-06-22T01:58:24.167Z,63.81
2018-06-22T01:59:24.135Z,63.90
2018-06-22T02:00:24.123Z,64.04
2018-06-22T02:01:24.111Z,63.73
2018-06-22T02:02:24.059Z,63.83
2018-06-22T02:03:24.143Z,63.70
2018-06-22T02:04:24.073Z,63.43
2018-06-22T02:05:24.068Z,63.83
2018-06-22T02:06:24.027Z,63.73
2018-06-22T02:07:24.050Z,63.29
2018-06-22T02:08:24.067Z,63.70
2018-06-22T02:09:24.020Z,64.04
2018-06-22T02:10:24.015Z,63.49
2018-06-22T02:11:23.965Z,63.70
2018-06-22T02:12:23.994Z,63.63
2018-06-22T02:13:24.007Z,63.63
2018-06-22T02:14:23.924Z,63.81
2018-06-22T02:15:24.001Z,63.81
2018-06-22T02:16:23.947Z,64.14
2018-06-22T02:17:23.931Z,64.11
2018-06-22T02:18:23.984Z,64.31
2018-06-22T02:19:23.939Z,64.42
2018-06-22T02:20:23.905Z,64.22
2018-06-22T02:21:23.842Z,64.01
2018-06-22T02:22:23.837Z,64.22
2018-06-22T02:23:23.890Z,63.90
2018-06-22T02:24:23.867Z,64.01
2018-06-22T02:25:23.849Z,64.01
2018-06-22T02:26:23.786Z,63.63
2018-06-22T02:27:23.824Z,63.90
2018-06-22T02:28:23.860Z,63.90
2018-06-22T02:29:23.762Z,64.01
2018-06-22T02:30:23.810Z,64.22
2018-06-22T02:31:23.778Z,63.60
2018-06-22T02:32:23.793Z,64.42
2018-06-22T02:33:23.768Z,64.11
2018-06-22T02:34:23.723Z,64.01
2018-06-22T02:35:23.761Z,64.22
2018-06-22T02:36:23.725Z,64.01
2018-06-22T02:37:23.716Z,63.49
2018-06-22T02:38:23.707Z,63.70
2018-06-22T02:39:23.714Z,64.22
2018-06-22T02:40:23.681Z,64.31
2018-06-22T02:41:23.663Z,64.11
2018-06-22T02:42:23.616Z,64.11
2018-06-22T02:43:23.655Z,64.01
2018-06-22T02:44:23.659Z,63.60
2018-06-22T02:45:23.629Z,63.49
2018-06-22T02:46:23.630Z,63.73
2018-06-22T02:47:23.613Z,63.83
2018-06-22T02:48:23.593Z,64.14
2018-06-22T02:49:23.615Z,64.75
2018-06-22T02:50:23.577Z,64.11
2018-06-22T02:51:23.577Z,64.34
2018-06-22T02:52:23.499Z,64.11
2018-06-22T02:53:23.540Z,64.42
2018-06-22T02:54:23.555Z,64.14
2018-06-22T02:55:23.524Z,64.45
2018-06-22T02:56:23.511Z,64.45
2018-06-22T02:57:23.501Z,64.22
2018-06-22T02:58:23.529Z,64.52
2018-06-22T02:59:23.493Z,64.01
2018-06-22T03:00:23.456Z,64.31
2018-06-22T03:01:23.446Z,64.22
2018-06-22T03:02:23.454Z,64.11
2018-06-22T03:03:23.381Z,64.22
2018-06-22T03:04:23.436Z,64.34
2018-06-22T03:05:23.411Z,64.31
2018-06-22T03:06:23.409Z,64.45
2018-06-22T03:07:23.396Z,64.62
2018-06-22T03:08:23.373Z,64.65
2018-06-22T03:09:23.387Z,64.31
2018-06-22T03:10:23.366Z,64.11
2018-06-22T03:11:23.345Z,64.62
2018-06-22T03:12:23.329Z,64.83
2018-06-22T03:13:23.342Z,64.72
2018-06-22T03:14:23.327Z,64.42
2018-06-22T03:15:23.300Z,64.83
2018-06-22T03:16:23.249Z,64.65
2018-06-22T03:17:23.273Z,64.86
2018-06-22T03:18:23.293Z,64.62
2018-06-22T03:19:23.231Z,64.45
2018-06-22T03:20:23.242Z,64.65
2018-06-22T03:21:23.238Z,64.45
2018-06-22T03:22:23.229Z,64.42
2018-06-22T03:23:23.206Z,64.93
2018-06-22T03:24:23.227Z,64.75
2018-06-22T03:25:23.189Z,64.52
2018-06-22T03:26:23.268Z,64.72
2018-06-22T03:27:23.167Z,65.13
2018-06-22T03:28:23.167Z,64.62
2018-06-22T03:29:23.174Z,65.16
2018-06-22T03:30:23.139Z,65.16
2018-06-22T03:31:23.128Z,64.96
2018-06-22T03:32:23.120Z,65.16
2018-06-22T03:33:23.135Z,66.18
2018-06-22T03:34:23.128Z,66.18
2018-06-22T03:35:23.081Z,66.18
2018-06-22T03:36:23.075Z,65.98
2018-06-22T03:37:23.074Z,65.67
2018-06-22T03:38:23.046Z,65.80
2018-06-22T03:39:23.086Z,66.11
2018-06-22T03:40:23.021Z,66.11
2018-06-22T03:41:23.041Z,66.21
2018-06-22T03:42:23.131Z,66.11
2018-06-22T03:43:22.990Z,66.21
2018-06-22T03:44:23.011Z,66.11
2018-06-22T03:45:22.986Z,66.31
2018-06-22T03:46:22.956Z,66.31
2018-06-22T03:47:22.943Z,66.21
2018-06-22T03:48:22.933Z,66.42
2018-06-22T03:49:22.940Z,66.62
2018-06-22T03:50:22.958Z,66.75
2018-06-22T03:51:22.932Z,66.42
2018-06-22T03:52:22.896Z,66.62
2018-06-22T03:53:22.883Z,66.93
2018-06-22T03:54:22.903Z,67.03
2018-06-22T03:55:22.855Z,67.13
2018-06-22T03:56:22.841Z,66.93
2018-06-22T03:57:22.835Z,66.93
2018-06-22T03:58:22.823Z,66.93
2018-06-22T03:59:22.832Z,66.93
2018-06-22T04:00:22.801Z,67.03
2018-06-22T04:01:22.796Z,67.03
2018-06-22T04:02:22.776Z,67.03
2018-06-22T04:03:22.773Z,67.13
2018-06-22T04:04:22.782Z,66.93
2018-06-22T04:05:22.752Z,66.93
2018-06-22T04:06:22.734Z,66.52
2018-06-22T04:07:22.726Z,66.72
2018-06-22T04:08:22.715Z,66.62
2018-06-22T04:09:22.684Z,66.62
2018-06-22T04:10:22.687Z,66.80
2018-06-22T04:11:22.674Z,66.31
2018-06-22T04:12:22.669Z,66.52
2018-06-22T04:13:22.658Z,66.42
2018-06-22T04:14:22.663Z,66.39
2018-06-22T04:15:22.633Z,66.28
2018-06-22T04:16:22.701Z,65.98
2018-06-22T04:17:22.608Z,66.08
2018-06-22T04:18:22.604Z,66.18
2018-06-22T04:19:22.651Z,65.98
2018-06-22T04:20:22.583Z,65.98
2018-06-22T04:21:22.586Z,65.67
2018-06-22T04:22:22.559Z,66.59
2018-06-22T04:23:22.574Z,66.39
2018-06-22T04:24:22.583Z,65.77
2018-06-22T04:25:22.525Z,66.69
2018-06-22T04:26:22.467Z,66.18
2018-06-22T04:27:22.509Z,65.84
2018-06-22T04:28:22.494Z,65.64
2018-06-22T04:29:22.478Z,65.84
2018-06-22T04:30:22.495Z,66.15
2018-06-22T04:31:22.460Z,65.34
2018-06-22T04:32:22.452Z,65.34
2018-06-22T04:33:22.441Z,65.54
2018-06-22T04:34:22.426Z,65.44
2018-06-22T04:35:22.493Z,65.23
2018-06-22T04:36:22.450Z,65.03
2018-06-22T04:37:22.393Z,64.90
2018-06-22T04:38:22.383Z,64.49
2018-06-22T04:39:22.382Z,64.79
2018-06-22T04:40:22.383Z,65.00
2018-06-22T04:41:22.368Z,64.69
2018-06-22T04:42:22.341Z,64.28
2018-06-22T04:43:22.328Z,64.69
2018-06-22T04:44:22.316Z,64.36
2018-06-22T04:45:22.326Z,64.39
2018-06-22T04:46:22.302Z,64.36
2018-06-22T04:47:22.283Z,63.85
2018-06-22T04:48:22.278Z,64.05
2018-06-22T04:49:22.262Z,63.75
2018-06-22T04:50:22.275Z,64.12
2018-06-22T04:51:22.257Z,64.15
2018-06-22T04:52:22.234Z,63.61
2018-06-22T04:53:22.227Z,63.92
2018-06-22T04:54:22.211Z,64.12
2018-06-22T04:55:22.223Z,63.51
2018-06-22T04:56:22.198Z,63.31
2018-06-22T04:57:22.173Z,63.51
2018-06-22T04:58:22.177Z,63.10
2018-06-22T04:59:22.178Z,62.66
2018-06-22T05:00:22.176Z,62.87
2018-06-22T05:01:22.130Z,62.63
2018-06-22T05:02:22.126Z,61.82
2018-06-22T05:03:22.061Z,61.93
2018-06-22T05:04:22.105Z,61.00
2018-06-22T05:05:22.106Z,61.72
2018-06-22T05:06:22.073Z,61.00
2018-06-22T05:07:22.076Z,61.72
2018-06-22T05:08:22.069Z,62.56
2018-06-22T05:09:22.064Z,62.26
2018-06-22T05:10:22.053Z,61.82
2018-06-22T05:11:22.019Z,62.63
2018-06-22T05:12:22.104Z,62.54
2018-06-22T05:13:21.995Z,62.33
2018-06-22T05:14:21.983Z,61.52
2018-06-22T05:15:22.057Z,61.08
2018-06-22T05:16:21.962Z,59.60
2018-06-22T05:17:21.957Z,58.63
2018-06-22T05:18:21.947Z,57.89
2018-06-22T05:19:21.948Z,57.08
2018-06-22T05:20:21.941Z,56.67
2018-06-22T05:21:21.913Z,57.21
2018-06-22T05:22:21.908Z,57.31
2018-06-22T05:23:21.892Z,57.81
2018-06-22T05:24:21.884Z,57.34
2018-06-22T05:25:21.898Z,58.15
2018-06-22T05:26:21.857Z,57.92
2018-06-22T05:27:21.845Z,57.61
2018-06-22T05:28:21.968Z,57.48
2018-06-22T05:29:28.844Z,57.48
2018-06-22T05:30:21.836Z,57.81
2018-06-22T05:31:21.791Z,57.81
2018-06-22T05:32:21.795Z,58.15
2018-06-22T05:33:21.780Z,58.45
2018-06-22T05:34:21.773Z,58.35
2018-06-22T05:35:21.781Z,58.35
2018-06-22T05:36:21.752Z,58.96
2018-06-22T05:37:21.743Z,58.86
2018-06-22T05:38:21.727Z,59.47
2018-06-22T05:39:21.722Z,59.27
2018-06-22T05:40:21.735Z,59.16
2018-06-22T05:41:21.696Z,59.67
2018-06-22T05:42:21.693Z,62.32
2018-06-22T05:43:21.706Z,59.75
2018-06-22T05:44:21.660Z,59.64
2018-06-22T05:45:21.685Z,59.14
2018-06-22T05:46:21.647Z,59.44
2018-06-22T05:47:21.635Z,59.14
2018-06-22T05:48:21.630Z,59.54
2018-06-22T05:49:21.617Z,59.64
2018-06-22T05:50:21.617Z,59.14
2018-06-22T05:51:21.589Z,59.34
2018-06-22T05:52:21.663Z,59.64
2018-06-22T05:53:21.575Z,59.67
2018-06-22T05:54:21.550Z,60.08
2018-06-22T05:55:21.595Z,59.77
2018-06-22T05:56:21.571Z,59.67
2018-06-22T05:57:21.519Z,60.28
2018-06-22T05:58:21.518Z,60.38
2018-06-22T05:59:21.514Z,60.69
2018-06-22T06:00:21.516Z,59.88
2018-06-22T06:01:21.479Z,59.77
2018-06-22T06:02:21.469Z,60.08
2018-06-22T06:03:21.462Z,59.95
2018-06-22T06:04:21.491Z,60.05
2018-06-22T06:05:21.421Z,58.33
2018-06-22T06:06:21.422Z,58.83
2018-06-22T06:07:21.423Z,59.21
2018-06-22T06:08:21.355Z,58.29
2018-06-22T06:09:21.396Z,59.31
2018-06-22T06:10:21.515Z,58.80
2018-06-22T06:11:21.374Z,58.09
2018-06-22T06:12:21.410Z,57.89
2018-06-22T06:13:21.348Z,57.89
2018-06-22T06:14:21.352Z,58.12
2018-06-22T06:15:21.342Z,58.80
2018-06-22T06:16:21.319Z,58.50
2018-06-22T06:17:21.302Z,58.29
2018-06-22T06:18:21.293Z,58.94
2018-06-22T06:19:21.280Z,58.63
2018-06-22T06:20:21.273Z,58.63
2018-06-22T06:21:21.283Z,58.63
2018-06-22T06:22:21.254Z,58.73
2018-06-22T06:23:21.248Z,58.63
2018-06-22T06:24:21.285Z,58.60
2018-06-22T06:25:21.213Z,58.70
2018-06-22T06:26:21.233Z,58.94
2018-06-22T06:27:21.204Z,58.42
2018-06-22T06:28:21.184Z,59.01
2018-06-22T06:29:21.174Z,58.29
2018-06-22T06:30:21.163Z,58.70
2018-06-22T06:31:21.188Z,58.29
2018-06-22T06:32:21.146Z,58.83
2018-06-22T06:33:21.124Z,59.84
2018-06-22T06:34:21.136Z,59.64
2018-06-22T06:35:21.104Z,59.84
2018-06-22T06:36:21.114Z,58.53
2018-06-22T06:37:21.089Z,58.29
2018-06-22T06:38:21.077Z,58.50
2018-06-22T06:39:21.063Z,58.60
2018-06-22T06:40:21.062Z,58.60
2018-06-22T06:41:21.065Z,58.29
2018-06-22T06:42:21.029Z,58.50
2018-06-22T06:43:21.025Z,57.99
2018-06-22T06:44:21.006Z,58.91
2018-06-22T06:45:21.000Z,58.40
2018-06-22T06:46:21.009Z,58.33
2018-06-22T06:47:20.978Z,58.50
2018-06-22T06:48:20.975Z,58.70
2018-06-22T06:49:20.958Z,58.06
2018-06-22T06:50:20.943Z,57.76
2018-06-22T06:51:20.961Z,57.15
2018-06-22T06:52:20.919Z,56.85
2018-06-22T06:53:20.914Z,57.38
2018-06-22T06:54:20.914Z,57.68
2018-06-22T06:55:20.890Z,57.68
2018-06-22T06:56:20.910Z,58.09
2018-06-22T06:57:20.875Z,57.68
2018-06-22T06:58:20.859Z,58.09
2018-06-22T06:59:20.800Z,58.09
2018-06-22T07:00:20.833Z,57.08
2018-06-22T07:01:20.863Z,57.68
2018-06-22T07:02:20.819Z,57.05
2018-06-22T07:03:20.804Z,56.65
2018-06-22T07:04:20.804Z,56.65
2018-06-22T07:05:20.785Z,56.31
2018-06-22T07:06:20.795Z,55.71
2018-06-22T07:07:20.770Z,55.30
2018-06-22T07:08:20.787Z,55.40
2018-06-22T07:09:20.734Z,54.97
2018-06-22T07:10:20.728Z,55.10
2018-06-22T07:11:20.746Z,55.47
2018-06-22T07:12:20.704Z,54.36
2018-06-22T07:13:20.691Z,53.83
2018-06-22T07:14:20.691Z,54.86
2018-06-22T07:15:20.675Z,54.57
2018-06-22T07:16:20.697Z,53.47
2018-06-22T07:17:20.647Z,53.88
2018-06-22T07:18:20.657Z,54.49
2018-06-22T07:19:20.652Z,55.60
2018-06-22T07:20:20.624Z,55.30
2018-06-22T07:21:20.631Z,54.61
2018-06-22T07:22:20.600Z,54.99
2018-06-22T07:23:20.593Z,54.69
2018-06-22T07:24:20.580Z,53.45
2018-06-22T07:25:20.526Z,53.55
2018-06-22T07:26:20.620Z,52.84
2018-06-22T07:27:20.545Z,53.42
2018-06-22T07:28:20.589Z,52.59
2018-06-22T07:29:20.528Z,52.89
2018-06-22T07:30:20.521Z,52.06
2018-06-22T07:31:20.545Z,51.98
2018-06-22T07:32:20.485Z,52.28
2018-06-22T07:33:20.478Z,51.86
2018-06-22T07:34:20.459Z,52.89
2018-06-22T07:35:20.458Z,52.89
2018-06-22T07:36:20.462Z,52.86
2018-06-22T07:37:20.426Z,52.28
2018-06-22T07:38:20.386Z,52.18
2018-06-22T07:39:20.407Z,52.89
2018-06-22T07:40:20.395Z,52.99
2018-06-22T07:41:20.371Z,53.32
2018-06-22T07:42:20.376Z,53.02
2018-06-22T07:43:20.379Z,53.52
2018-06-22T07:44:20.447Z,53.55
2018-06-22T07:45:20.342Z,53.12
2018-06-22T07:46:20.356Z,53.45
2018-06-22T07:47:20.316Z,53.42
2018-06-22T07:48:20.311Z,53.02
2018-06-22T07:49:20.265Z,52.81
2018-06-22T07:50:20.285Z,52.92
2018-06-22T07:51:20.292Z,53.52
2018-06-22T07:52:20.262Z,52.81
2018-06-22T07:53:20.258Z,53.32
2018-06-22T07:54:20.241Z,53.42
2018-06-22T07:55:20.235Z,52.41
2018-06-22T07:56:20.198Z,53.25
2018-06-22T07:57:20.220Z,52.94
2018-06-22T07:58:20.201Z,53.14
2018-06-22T07:59:20.186Z,53.12
2018-06-22T08:00:20.136Z,53.34
2018-06-22T08:01:20.186Z,52.71
2018-06-22T08:02:20.165Z,51.98
2018-06-22T08:03:20.144Z,52.36
2018-06-22T08:04:20.132Z,51.12
2018-06-22T08:05:20.116Z,50.61
2018-06-22T08:06:20.130Z,51.40
2018-06-22T08:07:20.118Z,50.16
2018-06-22T08:08:20.088Z,49.86
2018-06-22T08:09:20.075Z,50.44
2018-06-22T08:10:20.070Z,49.13
2018-06-22T08:11:20.078Z,49.76
2018-06-22T08:12:20.066Z,49.63
2018-06-22T08:13:20.036Z,49.84
2018-06-22T08:14:20.022Z,49.93
2018-06-22T08:15:20.016Z,49.63
2018-06-22T08:16:19.998Z,50.57
2018-06-22T08:17:20.007Z,50.26
2018-06-22T08:18:19.981Z,51.09
2018-06-22T08:19:19.965Z,51.42
2018-06-22T08:20:19.955Z,51.02
2018-06-22T08:21:19.986Z,52.03
2018-06-22T08:22:19.956Z,51.73
2018-06-22T08:23:19.930Z,51.83
2018-06-22T08:24:19.933Z,51.09
2018-06-22T08:25:19.898Z,51.09
2018-06-22T08:26:19.886Z,50.89
2018-06-22T08:27:19.902Z,51.32
2018-06-22T08:28:19.873Z,51.20
2018-06-22T08:29:19.857Z,50.69
2018-06-22T08:30:19.855Z,50.49
2018-06-22T08:31:19.841Z,50.67
2018-06-22T08:32:19.844Z,50.87
2018-06-22T08:33:19.820Z,49.01
2018-06-22T08:34:19.812Z,48.15
2018-06-22T08:35:19.793Z,47.82
2018-06-22T08:36:19.777Z,48.07
2018-06-22T08:37:19.793Z,48.42
2018-06-22T08:38:19.760Z,49.10
2018-06-22T08:39:19.754Z,49.10
2018-06-22T08:40:19.711Z,48.39
2018-06-22T08:41:19.721Z,48.19
2018-06-22T08:42:19.736Z,48.10
2018-06-22T08:43:19.710Z,48.70
2018-06-22T08:44:19.689Z,48.27
2018-06-22T08:45:19.678Z,47.87
2018-06-22T08:46:19.670Z,48.30
2018-06-22T08:47:19.684Z,48.10
2018-06-22T08:48:19.653Z,48.19
2018-06-22T08:49:19.645Z,47.67
2018-06-22T08:50:19.621Z,46.84
2018-06-22T08:51:19.612Z,46.92
2018-06-22T08:52:19.628Z,46.13
2018-06-22T08:53:19.597Z,46.01
2018-06-22T08:54:19.582Z,46.94
2018-06-22T08:55:19.568Z,46.21
2018-06-22T08:56:19.620Z,46.31
2018-06-22T08:57:19.579Z,46.13
2018-06-22T08:58:19.542Z,46.11
2018-06-22T08:59:19.525Z,46.01
2018-06-22T09:00:19.517Z,46.71
2018-06-22T09:01:19.509Z,46.21
2018-06-22T09:02:19.545Z,46.23
2018-06-22T09:03:19.442Z,46.73
2018-06-22T09:04:19.492Z,46.11
2018-06-22T09:05:19.465Z,46.11
2018-06-22T09:06:19.454Z,45.78
2018-06-22T09:07:19.467Z,45.58
2018-06-22T09:08:19.435Z,44.87
2018-06-22T09:09:19.421Z,44.47
2018-06-22T09:10:19.413Z,44.57
2018-06-22T09:11:19.397Z,44.27
2018-06-22T09:12:19.406Z,44.98
2018-06-22T09:13:19.382Z,43.62
2018-06-22T09:14:19.364Z,43.79
2018-06-22T09:15:19.356Z,42.86
2018-06-22T09:16:19.344Z,41.95
2018-06-22T09:17:19.500Z,41.93
2018-06-22T09:18:19.318Z,41.23
2018-06-22T09:19:19.315Z,41.83
2018-06-22T09:20:19.303Z,41.53
2018-06-22T09:21:19.285Z,41.85
2018-06-22T09:22:19.323Z,41.55
2018-06-22T09:23:19.267Z,42.18
2018-06-22T09:24:19.254Z,41.87
2018-06-22T09:25:19.288Z,43.38
2018-06-22T09:26:19.227Z,43.73
2018-06-22T09:27:19.242Z,44.13
2018-06-22T09:28:19.209Z,44.02
2018-06-22T09:29:19.200Z,43.74
2018-06-22T09:30:19.194Z,44.35
2018-06-22T09:31:19.221Z,44.85
2018-06-22T09:32:19.184Z,44.45
2018-06-22T09:33:19.150Z,45.61
2018-06-22T09:34:19.142Z,46.71
2018-06-22T09:35:19.136Z,47.02
2018-06-22T09:36:19.233Z,46.41
2018-06-22T09:37:19.109Z,46.23
2018-06-22T09:38:19.115Z,46.01
2018-06-22T09:39:19.098Z,45.89
2018-06-22T09:40:19.074Z,45.68
2018-06-22T09:41:19.070Z,45.98
2018-06-22T09:42:19.057Z,45.68
2018-06-22T09:43:19.061Z,45.28
2018-06-22T09:44:19.024Z,45.86
2018-06-22T09:45:19.019Z,46.06
2018-06-22T09:46:19.005Z,45.56
2018-06-22T09:47:18.998Z,44.67
2018-06-22T09:48:19.022Z,44.95
2018-06-22T09:49:18.974Z,45.07
2018-06-22T09:50:18.964Z,45.78
2018-06-22T09:51:18.959Z,44.98
2018-06-22T09:52:18.942Z,44.47
2018-06-22T09:53:18.954Z,44.98
2018-06-22T09:54:18.924Z,44.49
2018-06-22T09:55:18.918Z,45.61
2018-06-22T09:56:18.896Z,45.93
2018-06-22T09:57:18.893Z,46.25
2018-06-22T09:58:18.901Z,45.85
2018-06-22T09:59:18.866Z,46.58
2018-06-22T10:00:18.863Z,47.19
2018-06-22T10:01:18.841Z,46.98
2018-06-22T10:02:18.836Z,46.68
2018-06-22T10:03:18.848Z,46.78
2018-06-22T10:04:18.811Z,46.48
2018-06-22T10:05:18.805Z,46.98
2018-06-22T10:06:18.798Z,46.05
2018-06-22T10:07:18.761Z,45.54
2018-06-22T10:08:18.850Z,46.25
2018-06-22T10:09:18.726Z,46.28
2018-06-22T10:10:18.745Z,46.66
2018-06-22T10:11:18.751Z,46.86
2018-06-22T10:12:18.732Z,46.78
2018-06-22T10:13:18.713Z,46.58
2018-06-22T10:14:18.711Z,47.69
2018-06-22T10:15:18.702Z,47.51
2018-06-22T10:16:18.728Z,48.22
2018-06-22T10:17:18.680Z,48.72
2018-06-22T10:18:18.696Z,48.32
2018-06-22T10:19:18.652Z,48.02
2018-06-22T10:20:18.642Z,48.32
2018-06-22T10:21:18.629Z,48.11
2018-06-22T10:22:18.638Z,48.19
2018-06-22T10:23:18.629Z,48.10
2018-06-22T10:24:18.597Z,47.89
2018-06-22T10:25:18.587Z,46.45
2018-06-22T10:26:18.575Z,46.36
2018-06-22T10:27:18.611Z,46.86
2018-06-22T10:28:18.578Z,46.03
2018-06-22T10:29:18.511Z,46.13
2018-06-22T10:30:18.546Z,46.25
2018-06-22T10:31:18.524Z,46.28
2018-06-22T10:32:18.552Z,46.98
2018-06-22T10:33:18.529Z,47.20
2018-06-22T10:34:18.502Z,47.03
2018-06-22T10:35:18.475Z,48.16
2018-06-22T10:36:18.472Z,47.75
2018-06-22T10:37:18.456Z,48.67
2018-06-22T10:38:18.460Z,48.03
2018-06-22T10:39:18.504Z,47.83
2018-06-22T10:40:18.447Z,47.83
2018-06-22T10:41:18.414Z,48.22
2018-06-22T10:42:18.406Z,48.02
2018-06-22T10:43:18.409Z,47.91
2018-06-22T10:44:18.378Z,48.34
2018-06-22T10:45:18.367Z,47.74
2018-06-22T10:46:18.360Z,47.94
2018-06-22T10:47:18.344Z,47.94
2018-06-22T10:48:18.346Z,48.34
2018-06-22T10:49:18.365Z,48.14
2018-06-22T10:50:18.318Z,48.26
2018-06-22T10:51:18.307Z,48.26
2018-06-22T10:52:18.291Z,49.48
2018-06-22T10:53:18.237Z,49.30
2018-06-22T10:54:18.298Z,49.10
2018-06-22T10:55:18.264Z,48.99
2018-06-22T10:56:18.245Z,48.77
2018-06-22T10:57:18.251Z,48.87
2018-06-22T10:58:18.230Z,49.07
2018-06-22T10:59:18.245Z,47.75
2018-06-22T11:00:18.213Z,48.26
2018-06-22T11:01:18.193Z,48.06
2018-06-22T11:02:18.190Z,48.26
2018-06-22T11:03:18.175Z,48.77
2018-06-22T11:04:18.187Z,48.36
2018-06-22T11:05:18.144Z,48.44
2018-06-22T11:06:18.098Z,47.81
2018-06-22T11:07:18.125Z,47.19
2018-06-22T11:08:18.116Z,46.86
2018-06-22T11:09:18.230Z,46.76
2018-06-22T11:10:18.089Z,46.13
2018-06-22T11:11:18.092Z,45.81
2018-06-22T11:12:18.057Z,46.11
2018-06-22T11:13:18.063Z,45.70
2018-06-22T11:14:18.071Z,45.20
2018-06-22T11:15:18.045Z,44.37
2018-06-22T11:16:18.036Z,44.85
2018-06-22T11:17:18.070Z,44.02
2018-06-22T11:18:18.064Z,43.82
2018-06-22T11:19:18.016Z,43.73
2018-06-22T11:20:17.984Z,43.42
2018-06-22T11:21:18.037Z,43.54
2018-06-22T11:22:17.926Z,43.74
2018-06-22T11:23:17.958Z,44.15
2018-06-22T11:24:17.969Z,43.95
2018-06-22T11:25:17.890Z,43.85
2018-06-22T11:26:17.931Z,44.02
2018-06-22T11:27:17.953Z,43.62
2018-06-22T11:28:17.917Z,43.71
2018-06-22T11:29:17.907Z,43.40
2018-06-22T11:30:17.879Z,41.89
2018-06-22T11:31:17.864Z,42.30
2018-06-22T11:32:17.942Z,42.80
2018-06-22T11:33:17.960Z,43.30
2018-06-22T11:34:17.858Z,43.60
2018-06-22T11:35:17.830Z,43.18
2018-06-22T11:36:17.879Z,41.97
2018-06-22T11:37:17.855Z,42.27
2018-06-22T11:38:17.745Z,43.08
2018-06-22T11:39:17.815Z,42.68
2018-06-22T11:40:17.776Z,41.57
2018-06-22T11:41:17.804Z,41.59
2018-06-22T11:42:17.749Z,41.79
2018-06-22T11:43:17.741Z,41.59
2018-06-22T11:44:17.752Z,42.40
2018-06-22T11:45:17.709Z,41.69
2018-06-22T11:46:17.698Z,42.10
2018-06-22T11:47:17.719Z,42.21
2018-06-22T11:48:17.678Z,42.54
2018-06-22T11:49:17.834Z,43.46
2018-06-22T11:50:17.658Z,43.77
2018-06-22T11:51:17.612Z,43.66
2018-06-22T11:52:17.642Z,43.87
2018-06-22T11:53:17.620Z,43.46
2018-06-22T11:54:17.624Z,43.57
2018-06-22T11:55:17.616Z,43.54
2018-06-22T11:56:17.602Z,43.74
2018-06-22T11:57:17.605Z,43.44
2018-06-22T11:58:17.576Z,43.02
2018-06-22T11:59:17.556Z,43.32
2018-06-22T12:00:17.582Z,43.80
2018-06-22T12:01:17.539Z,43.91
2018-06-22T12:02:24.535Z,42.60
2018-06-22T12:03:17.521Z,42.10
2018-06-22T12:04:17.509Z,42.18
2018-06-22T12:05:17.650Z,42.76
2018-06-22T12:06:17.475Z,41.67
2018-06-22T12:07:17.468Z,41.67
2018-06-22T12:08:17.417Z,42.18
2018-06-22T12:09:17.443Z,42.15
2018-06-22T12:10:17.468Z,41.83
2018-06-22T12:11:17.434Z,41.13
2018-06-22T12:12:17.424Z,41.43
2018-06-22T12:13:17.409Z,41.43
2018-06-22T12:14:17.394Z,41.55
2018-06-22T12:15:17.422Z,41.45
2018-06-22T12:16:17.384Z,41.05
2018-06-22T12:17:17.375Z,41.87
2018-06-22T12:18:17.342Z,42.05
2018-06-22T12:19:17.470Z,41.03
2018-06-22T12:20:17.353Z,41.83
2018-06-22T12:21:17.311Z,41.45
2018-06-22T12:22:17.310Z,41.63
2018-06-22T12:23:17.313Z,41.63
2018-06-22T12:24:17.291Z,41.75
2018-06-22T12:25:17.285Z,41.55
2018-06-22T12:26:17.266Z,42.18
2018-06-22T12:27:17.247Z,42.11
2018-06-22T12:28:17.249Z,43.22
2018-06-22T12:29:17.251Z,44.25
2018-06-22T12:30:17.259Z,48.22
2018-06-22T12:31:17.204Z,48.13
2018-06-22T12:32:17.162Z,49.38
2018-06-22T12:33:17.188Z,47.87
2018-06-22T12:34:17.167Z,48.27
2018-06-22T12:35:17.250Z,49.01
2018-06-22T12:36:17.190Z,48.30
2018-06-22T12:37:17.219Z,47.69
2018-06-22T12:38:17.125Z,47.97
2018-06-22T12:39:17.119Z,48.17
2018-06-22T12:40:17.137Z,48.47
2018-06-22T12:41:17.111Z,47.97
2018-06-22T12:42:17.101Z,47.74
2018-06-22T12:43:17.074Z,47.95
2018-06-22T12:44:17.061Z,46.81
2018-06-22T12:45:17.133Z,47.22
2018-06-22T12:46:17.046Z,46.09
2018-06-22T12:47:17.034Z,45.98
2018-06-22T12:48:17.029Z,46.19
2018-06-22T12:49:17.021Z,45.86
2018-06-22T12:50:17.018Z,46.37
2018-06-22T12:51:17.061Z,45.46
2018-06-22T12:52:16.985Z,45.76